Time;durP1;ratioP1;P1;durP2;ratioP2;P2;SDS_P1;SDS_P2;PMS_P1;PMS_P2;Temp;Humidity;BMP_temperature;BMP_pressure;BME280_temperature;BME280_humidity;BME280_pressure;Samples;Min_cycle;Max_cycle;Signal;HPM_P1;HPM_P2
2024/03/18 00:03:45;;;;;;;8.52;4.38;;;14.00;99.90;;;;;;10019382;28;20466;-69
2024/03/18 00:08:36;;;;;;;5.95;4.00;;;14.00;99.90;;;;;;10022162;28;20088;-67
2024/03/18 00:13:26;;;;;;;6.47;4.00;;;14.00;99.90;;;;;;10014338;28;20117;-68
2024/03/18 00:18:17;;;;;;;7.90;3.80;;;14.00;99.90;;;;;;10025516;28;20036;-67
2024/03/18 00:23:08;;;;;;;7.70;3.83;;;14.00;99.90;;;;;;10018642;28;20052;-68
2024/03/18 00:27:58;;;;;;;4.90;3.88;;;14.00;99.90;;;;;;10017245;28;20038;-68
2024/03/18 00:32:49;;;;;;;6.93;3.95;;;14.00;99.90;;;;;;10018524;28;20034;-66
2024/03/18 00:37:40;;;;;;;6.03;3.17;;;14.00;99.90;;;;;;10019039;28;20519;-68
2024/03/18 00:42:31;;;;;;;7.13;3.22;;;14.00;99.90;;;;;;10017762;28;20030;-68
2024/03/18 00:47:23;;;;;;;5.00;2.70;;;14.00;99.90;;;;;;10022624;28;20022;-67
2024/03/18 00:52:14;;;;;;;4.28;2.58;;;14.00;99.90;;;;;;10018930;28;20041;-66
2024/03/18 00:57:04;;;;;;;4.28;2.40;;;14.00;99.90;;;;;;10016324;28;20069;-68
2024/03/18 01:01:55;;;;;;;6.97;3.63;;;13.90;99.90;;;;;;10016898;28;20034;-68
2024/03/18 01:06:46;;;;;;;5.88;3.10;;;13.90;99.90;;;;;;10017695;28;20092;-67
2024/03/18 01:11:36;;;;;;;7.70;3.92;;;14.00;99.90;;;;;;10017269;28;20413;-68
2024/03/18 01:16:27;;;;;;;4.15;2.80;;;14.00;99.90;;;;;;10019589;28;20030;-67
2024/03/18 01:21:18;;;;;;;7.65;3.35;;;13.90;99.90;;;;;;10012815;28;20694;-66
2024/03/18 01:26:09;;;;;;;6.85;3.22;;;13.90;99.90;;;;;;10015191;28;20041;-69
2024/03/18 01:31:03;;;;;;;4.38;3.20;;;13.90;99.90;;;;;;10008935;28;20120;-66
2024/03/18 01:35:54;;;;;;;7.10;3.57;;;13.90;99.90;;;;;;10012967;28;20041;-67
2024/03/18 01:40:45;;;;;;;6.15;3.85;;;13.90;99.90;;;;;;10016573;28;20038;-67
2024/03/18 01:45:38;;;;;;;10.45;4.15;;;13.90;99.90;;;;;;10016114;28;20086;-67
2024/03/18 01:50:29;;;;;;;5.63;4.03;;;13.90;99.90;;;;;;10016779;28;20022;-68
2024/03/18 01:55:19;;;;;;;5.85;4.43;;;13.90;99.90;;;;;;10014308;28;20018;-67
2024/03/18 02:00:15;;;;;;;6.03;3.70;;;13.80;99.90;;;;;;10018182;28;20087;-69
2024/03/18 02:05:06;;;;;;;5.32;3.22;;;13.80;99.90;;;;;;10015880;28;20014;-69
2024/03/18 02:09:57;;;;;;;6.88;3.50;;;13.80;99.90;;;;;;10016435;28;20037;-67
2024/03/18 02:14:51;;;;;;;7.68;4.00;;;13.80;99.90;;;;;;10023368;28;20408;-68
2024/03/18 02:19:42;;;;;;;6.65;3.53;;;13.80;99.90;;;;;;10026164;28;20073;-68
2024/03/18 02:24:33;;;;;;;5.80;3.95;;;13.70;99.90;;;;;;10023035;28;20046;-67
2024/03/18 02:29:23;;;;;;;6.60;3.75;;;13.70;99.90;;;;;;10022923;28;20681;-68
2024/03/18 02:34:15;;;;;;;6.75;4.22;;;13.80;99.90;;;;;;10023266;28;20053;-68
2024/03/18 02:39:07;;;;;;;8.15;4.03;;;13.70;99.90;;;;;;10022735;28;20046;-71
2024/03/18 02:43:58;;;;;;;8.30;5.03;;;13.70;99.90;;;;;;10028676;28;20058;-69
2024/03/18 02:48:49;;;;;;;6.43;4.10;;;13.70;99.90;;;;;;10022572;28;20070;-70
2024/03/18 02:53:39;;;;;;;8.50;4.38;;;13.80;99.90;;;;;;10023874;28;20026;-70
2024/03/18 02:58:30;;;;;;;6.68;5.38;;;13.70;99.90;;;;;;10022048;28;20463;-70
2024/03/18 03:03:21;;;;;;;9.15;4.55;;;13.70;99.90;;;;;;10021360;28;20025;-69
2024/03/18 03:08:11;;;;;;;5.82;3.65;;;13.70;99.90;;;;;;10025330;28;20021;-70
2024/03/18 03:13:02;;;;;;;7.88;4.57;;;13.70;99.90;;;;;;10026273;28;20487;-67
2024/03/18 03:17:53;;;;;;;9.45;5.13;;;13.70;99.90;;;;;;10021241;28;20156;-71
2024/03/18 03:22:44;;;;;;;7.30;4.88;;;13.70;99.90;;;;;;10019599;28;20049;-69
2024/03/18 03:27:34;;;;;;;7.85;4.50;;;13.70;99.90;;;;;;10019929;28;20098;-70
2024/03/18 03:32:26;;;;;;;6.72;3.90;;;13.60;99.90;;;;;;10018535;28;20121;-69
2024/03/18 03:37:18;;;;;;;6.00;4.07;;;13.70;99.90;;;;;;10020544;28;20108;-69
2024/03/18 03:42:09;;;;;;;6.97;4.10;;;13.70;99.90;;;;;;10016038;28;20045;-67
2024/03/18 03:46:59;;;;;;;8.20;4.47;;;13.60;99.90;;;;;;10020267;28;20026;-70
2024/03/18 03:51:50;;;;;;;7.30;5.18;;;13.70;99.90;;;;;;10019683;28;20088;-67
2024/03/18 03:56:41;;;;;;;5.30;4.20;;;13.60;99.90;;;;;;10019682;28;20024;-67
2024/03/18 04:01:31;;;;;;;7.22;4.28;;;13.60;99.90;;;;;;10019628;28;20048;-68
2024/03/18 04:06:22;;;;;;;8.38;4.25;;;13.60;99.90;;;;;;10018695;28;20018;-70
2024/03/18 04:11:13;;;;;;;5.30;3.95;;;13.60;99.90;;;;;;10019291;28;20034;-69
2024/03/18 04:16:04;;;;;;;8.40;4.15;;;13.60;99.90;;;;;;10008022;28;20565;-70
2024/03/18 04:20:55;;;;;;;8.27;4.13;;;13.60;99.90;;;;;;10019280;28;20046;-69
2024/03/18 04:25:45;;;;;;;9.05;4.53;;;13.60;99.90;;;;;;10018251;28;20100;-69
2024/03/18 04:30:37;;;;;;;10.00;4.43;;;13.60;99.90;;;;;;10018326;28;20048;-67
2024/03/18 04:35:28;;;;;;;6.45;5.20;;;13.60;99.90;;;;;;10021066;28;20982;-67
2024/03/18 04:40:19;;;;;;;9.18;5.28;;;13.60;99.90;;;;;;10018211;28;20041;-68
2024/03/18 04:45:13;;;;;;;10.65;5.13;;;13.50;99.90;;;;;;10017960;28;20499;-67
2024/03/18 04:50:05;;;;;;;8.75;4.25;;;13.50;99.90;;;;;;10028232;28;20120;-67
2024/03/18 04:54:56;;;;;;;8.95;5.97;;;13.50;99.90;;;;;;10017137;28;20021;-70
2024/03/18 04:59:46;;;;;;;7.72;4.28;;;13.50;99.90;;;;;;10017848;28;20038;-68
2024/03/18 05:04:37;;;;;;;6.90;4.38;;;13.50;99.90;;;;;;10017042;28;20068;-67
2024/03/18 05:09:28;;;;;;;6.93;4.25;;;13.50;99.90;;;;;;10017310;28;20116;-68
2024/03/18 05:14:18;;;;;;;8.25;4.28;;;13.50;99.90;;;;;;10017207;28;20030;-67
2024/03/18 05:19:09;;;;;;;7.38;4.80;;;13.50;99.90;;;;;;10020726;28;20045;-67
2024/03/18 05:24:00;;;;;;;7.35;4.57;;;13.50;99.90;;;;;;10016334;28;20033;-67
2024/03/18 05:28:50;;;;;;;6.07;4.35;;;13.40;99.90;;;;;;10022640;28;20037;-67
2024/03/18 05:33:41;;;;;;;6.80;4.72;;;13.40;99.90;;;;;;10016714;28;20531;-68
2024/03/18 05:38:32;;;;;;;8.70;4.60;;;13.40;99.90;;;;;;10015143;28;20419;-68
2024/03/18 05:43:24;;;;;;;7.13;4.90;;;13.50;99.90;;;;;;10017196;28;20407;-68
2024/03/18 05:48:14;;;;;;;12.88;5.55;;;13.40;99.90;;;;;;10028220;28;20018;-67
2024/03/18 05:53:05;;;;;;;10.80;5.10;;;13.40;99.90;;;;;;10029323;28;20902;-67
2024/03/18 05:57:57;;;;;;;10.43;5.50;;;13.40;99.90;;;;;;10032299;28;20033;-68
2024/03/18 06:02:48;;;;;;;8.45;5.82;;;13.40;99.90;;;;;;10024358;28;20061;-68
2024/03/18 06:07:39;;;;;;;19.05;6.75;;;13.30;99.90;;;;;;10026706;28;20499;-68
2024/03/18 06:12:30;;;;;;;13.60;6.32;;;13.40;99.90;;;;;;10029045;28;20029;-67
2024/03/18 06:17:20;;;;;;;11.95;5.95;;;13.40;99.90;;;;;;10027738;28;20026;-69
2024/03/18 06:22:20;;;;;;;9.18;6.03;;;13.40;99.90;;;;;;10028810;28;20527;-68
2024/03/18 06:27:10;;;;;;;13.50;5.63;;;13.40;99.90;;;;;;10033794;28;20029;-67
2024/03/18 06:32:01;;;;;;;11.23;6.57;;;13.40;99.90;;;;;;10028153;28;20029;-67
2024/03/18 06:36:53;;;;;;;9.05;5.65;;;13.40;99.90;;;;;;10028867;28;20466;-67
2024/03/18 06:41:43;;;;;;;11.45;6.18;;;13.30;99.90;;;;;;10022076;28;20377;-67
2024/03/18 06:46:34;;;;;;;8.50;5.82;;;13.40;99.90;;;;;;10022613;28;20026;-67
2024/03/18 06:51:25;;;;;;;11.63;5.63;;;13.30;99.90;;;;;;10005825;28;20633;-67
2024/03/18 06:56:17;;;;;;;10.55;6.22;;;13.30;99.90;;;;;;10015162;28;20401;-69
2024/03/18 07:01:09;;;;;;;11.38;5.53;;;13.30;99.90;;;;;;10007996;28;20038;-67
2024/03/18 07:06:01;;;;;;;9.73;6.35;;;13.30;99.90;;;;;;10019219;28;20076;-67
2024/03/18 07:10:51;;;;;;;14.00;6.82;;;13.30;99.90;;;;;;10021517;28;20041;-68
2024/03/18 07:15:42;;;;;;;11.90;7.38;;;13.30;99.90;;;;;;10023513;28;20022;-68
2024/03/18 07:20:33;;;;;;;10.75;6.95;;;13.30;99.90;;;;;;10022451;28;20042;-68
2024/03/18 07:25:23;;;;;;;11.63;6.68;;;13.40;99.90;;;;;;10020366;28;20018;-67
2024/03/18 07:30:17;;;;;;;10.73;5.75;;;13.40;99.90;;;;;;10017984;28;20400;-68
2024/03/18 07:35:08;;;;;;;9.93;5.47;;;13.40;99.90;;;;;;10022376;28;20010;-68
2024/03/18 07:39:59;;;;;;;10.88;5.57;;;13.40;99.90;;;;;;10021505;28;20768;-69
2024/03/18 07:44:57;;;;;;;12.73;4.85;;;13.40;99.90;;;;;;10015711;28;20605;-70
2024/03/18 07:49:47;;;;;;;7.80;3.80;;;13.40;99.90;;;;;;10010860;28;20072;-69
2024/03/18 07:54:38;;;;;;;8.10;3.85;;;13.40;99.90;;;;;;9999351;28;20054;-69
2024/03/18 07:59:28;;;;;;;6.53;3.92;;;13.40;99.90;;;;;;10011019;28;20041;-69
2024/03/18 08:04:19;;;;;;;5.15;2.30;;;13.40;99.90;;;;;;10018937;28;20105;-69
2024/03/18 08:09:10;;;;;;;4.28;2.55;;;13.40;99.90;;;;;;10029362;28;20345;-69
2024/03/18 08:14:01;;;;;;;4.25;2.33;;;13.40;99.90;;;;;;10017889;28;20092;-69
2024/03/18 08:18:52;;;;;;;4.25;2.75;;;13.40;99.90;;;;;;10027489;28;20147;-69
2024/03/18 08:23:43;;;;;;;64.53;33.72;;;13.40;99.90;;;;;;10016879;28;20089;-69
2024/03/18 08:28:34;;;;;;;64.88;33.90;;;13.40;99.90;;;;;;10001311;28;20397;-69
2024/03/18 08:33:25;;;;;;;14.13;8.75;;;13.50;99.90;;;;;;10007454;28;20022;-69
2024/03/18 08:38:15;;;;;;;8.10;3.78;;;13.40;99.90;;;;;;10003570;28;20138;-66
2024/03/18 08:43:06;;;;;;;5.97;4.10;;;13.40;99.90;;;;;;10013630;28;20519;-67
2024/03/18 08:47:57;;;;;;;7.15;4.47;;;13.40;99.90;;;;;;10016653;28;20058;-66
2024/03/18 08:52:47;;;;;;;5.95;4.28;;;13.40;99.90;;;;;;10031921;28;20582;-67
2024/03/18 08:57:38;;;;;;;7.03;3.25;;;13.40;99.90;;;;;;10016682;28;20041;-69
2024/03/18 09:02:28;;;;;;;5.95;2.85;;;13.40;99.90;;;;;;10014000;28;20511;-68
2024/03/18 09:07:19;;;;;;;5.75;3.15;;;13.40;99.90;;;;;;10016340;28;20017;-69
2024/03/18 09:12:10;;;;;;;7.28;3.22;;;13.30;99.90;;;;;;10018543;28;20115;-70
2024/03/18 09:17:04;;;;;;;6.05;3.40;;;13.40;99.90;;;;;;10017647;28;20025;-70
2024/03/18 09:21:55;;;;;;;7.25;3.70;;;13.30;99.90;;;;;;10029078;28;20192;-70
2024/03/18 09:26:46;;;;;;;7.38;3.40;;;13.40;99.90;;;;;;10014738;28;20558;-70
2024/03/18 09:31:43;;;;;;;5.35;3.92;;;13.30;99.90;;;;;;10022954;28;20458;-71
2024/03/18 09:36:33;;;;;;;7.03;3.72;;;13.40;99.90;;;;;;10013940;28;20050;-70
2024/03/18 09:41:26;;;;;;;5.57;3.67;;;13.40;99.90;;;;;;10015020;28;20083;-71
2024/03/18 09:46:17;;;;;;;6.43;3.58;;;13.50;99.90;;;;;;10018670;28;20033;-69
2024/03/18 09:51:16;;;;;;;6.47;3.75;;;13.60;99.90;;;;;;10011202;28;20149;-70
2024/03/18 09:56:15;;;;;;;6.32;4.18;;;13.60;99.90;;;;;;10012239;28;20109;-71
2024/03/18 10:01:10;;;;;;;8.07;4.18;;;13.60;99.90;;;;;;10013245;28;20038;-71
2024/03/18 10:06:04;;;;;;;6.13;4.33;;;13.60;99.90;;;;;;10008162;28;20045;-70
2024/03/18 10:10:54;;;;;;;8.32;4.97;;;13.60;99.90;;;;;;10012463;28;20037;-71
2024/03/18 10:15:45;;;;;;;11.85;6.25;;;13.50;99.90;;;;;;10013855;28;20022;-71
2024/03/18 10:20:39;;;;;;;12.15;6.07;;;13.60;99.90;;;;;;10026122;28;20086;-71
2024/03/18 10:25:31;;;;;;;10.40;6.00;;;13.60;99.90;;;;;;10015553;28;20110;-70
2024/03/18 10:30:22;;;;;;;6.28;5.20;;;13.70;99.90;;;;;;10015758;28;20399;-70
2024/03/18 10:35:25;;;;;;;7.28;4.28;;;13.60;99.90;;;;;;10023195;28;20026;-70
2024/03/18 10:40:29;;;;;;;6.70;3.85;;;13.70;99.90;;;;;;10021156;28;20034;-71
2024/03/18 10:45:21;;;;;;;9.18;4.40;;;13.70;99.90;;;;;;10026164;28;20064;-74
2024/03/18 10:50:16;;;;;;;7.53;5.07;;;13.70;99.90;;;;;;10019271;28;20839;-70
2024/03/18 10:55:19;;;;;;;7.88;5.25;;;13.80;99.90;;;;;;10017050;28;20107;-70
2024/03/18 11:00:12;;;;;;;7.82;4.78;;;13.90;99.90;;;;;;10019955;28;20113;-70
2024/03/18 11:05:03;;;;;;;7.53;4.88;;;13.90;99.90;;;;;;10022180;28;20029;-71
2024/03/18 11:10:07;;;;;;;8.15;4.78;;;13.90;99.90;;;;;;10017116;28;20049;-71
2024/03/18 11:15:09;;;;;;;12.05;6.03;;;14.00;99.90;;;;;;10024068;28;20034;-71
2024/03/18 11:20:02;;;;;;;8.63;4.45;;;14.10;99.90;;;;;;10017868;28;20077;-70
2024/03/18 11:24:53;;;;;;;6.43;4.70;;;14.30;99.90;;;;;;10018833;28;20034;-71
2024/03/18 11:29:50;;;;;;;6.22;5.43;;;14.20;99.90;;;;;;10018835;28;20164;-72
2024/03/18 11:34:41;;;;;;;9.27;5.00;;;14.30;99.90;;;;;;10019707;28;20030;-71
2024/03/18 11:39:32;;;;;;;6.68;5.05;;;14.30;99.90;;;;;;10019415;28;20065;-71
2024/03/18 11:44:26;;;;;;;6.35;4.00;;;14.30;99.90;;;;;;10023155;28;20033;-71
2024/03/18 11:49:21;;;;;;;6.78;4.65;;;14.40;99.90;;;;;;10018905;28;20091;-70
2024/03/18 11:54:12;;;;;;;9.95;6.28;;;14.60;99.90;;;;;;10031982;28;20037;-72
2024/03/18 11:59:06;;;;;;;7.45;5.25;;;14.80;99.90;;;;;;10011372;28;20038;-73
2024/03/18 12:03:56;;;;;;;7.78;5.32;;;14.90;99.90;;;;;;10009311;28;20023;-68
2024/03/18 12:08:48;;;;;;;6.25;4.40;;;14.80;99.90;;;;;;10013177;28;20115;-69
2024/03/18 12:13:39;;;;;;;8.57;5.50;;;14.70;99.90;;;;;;10013813;28;20084;-75
2024/03/18 12:18:31;;;;;;;8.00;4.97;;;14.70;99.90;;;;;;10008458;28;20028;-68
2024/03/18 12:28:47;;;;;;;7.55;4.57;;;15.00;99.90;;;;;;10011052;28;20041;-70
2024/03/18 12:33:38;;;;;;;6.50;5.03;;;15.10;99.90;;;;;;10006408;28;20563;-70
2024/03/18 12:38:37;;;;;;;6.97;4.63;;;15.10;99.90;;;;;;10004621;28;20046;-69
2024/03/18 12:43:28;;;;;;;5.75;3.85;;;15.30;99.90;;;;;;10004004;28;20601;-69
2024/03/18 12:48:21;;;;;;;8.85;4.95;;;15.50;99.90;;;;;;10004070;28;20117;-69
2024/03/18 12:53:11;;;;;;;7.35;3.83;;;15.50;99.90;;;;;;10004809;28;20022;-70
2024/03/18 12:58:02;;;;;;;7.80;3.65;;;15.50;99.90;;;;;;10013056;28;20026;-72
2024/03/18 13:02:54;;;;;;;5.30;3.25;;;15.60;99.90;;;;;;10006207;28;20077;-71
2024/03/18 13:07:45;;;;;;;5.65;3.33;;;15.80;99.90;;;;;;10024280;28;20023;-69
2024/03/18 13:12:37;;;;;;;5.30;3.75;;;15.80;99.90;;;;;;10013891;28;20030;-71
2024/03/18 13:17:31;;;;;;;7.75;3.92;;;15.80;99.90;;;;;;10016353;28;20068;-71
2024/03/18 13:22:22;;;;;;;8.85;4.38;;;15.80;99.90;;;;;;10014511;28;20095;-69
2024/03/18 13:27:14;;;;;;;5.95;4.05;;;15.80;99.90;;;;;;10013963;28;20042;-71
2024/03/18 13:32:07;;;;;;;7.95;3.38;;;15.80;99.90;;;;;;10015543;28;20431;-71
2024/03/18 13:36:58;;;;;;;6.05;4.80;;;15.90;99.90;;;;;;10014333;28;20046;-69
2024/03/18 13:41:49;;;;;;;7.07;4.15;;;16.20;99.90;;;;;;10025063;28;20103;-73
2024/03/18 13:46:39;;;;;;;6.15;4.22;;;16.60;99.90;;;;;;10018309;28;20071;-69
2024/03/18 13:51:31;;;;;;;6.95;4.28;;;17.00;99.90;;;;;;10014672;28;20091;-70
2024/03/18 13:56:22;;;;;;;7.75;4.15;;;17.10;99.90;;;;;;10015218;28;20037;-71
2024/03/18 14:01:13;;;;;;;6.25;4.60;;;17.00;99.90;;;;;;10006487;28;20205;-70
2024/03/18 14:06:04;;;;;;;6.55;4.60;;;16.90;99.90;;;;;;10029780;28;20034;-73
2024/03/18 14:10:55;;;;;;;7.88;4.40;;;16.90;99.90;;;;;;10025145;28;20077;-70
2024/03/18 14:15:46;;;;;;;8.57;4.18;;;16.60;99.90;;;;;;10025585;28;20030;-70
2024/03/18 14:20:36;;;;;;;5.82;4.63;;;16.40;99.90;;;;;;10021045;28;20512;-70
2024/03/18 14:25:30;;;;;;;8.25;4.63;;;16.30;99.90;;;;;;10021821;28;20030;-70
2024/03/18 14:30:22;;;;;;;5.70;4.07;;;16.30;99.90;;;;;;10017289;28;20115;-68
2024/03/18 14:35:14;;;;;;;5.57;3.92;;;16.20;99.90;;;;;;10020506;28;20022;-72
2024/03/18 14:40:08;;;;;;;6.03;4.07;;;16.20;99.90;;;;;;10021126;28;20440;-70
2024/03/18 14:44:59;;;;;;;6.03;4.15;;;16.40;99.90;;;;;;10018517;28;20022;-70
2024/03/18 14:49:49;;;;;;;6.57;3.83;;;16.30;99.90;;;;;;10027600;28;20041;-68
2024/03/18 14:54:40;;;;;;;6.25;4.60;;;16.40;99.90;;;;;;10025568;28;20129;-69
2024/03/18 14:59:33;;;;;;;7.00;3.75;;;16.50;99.90;;;;;;10022805;28;20845;-70
2024/03/18 15:04:24;;;;;;;5.18;3.45;;;17.30;99.90;;;;;;10019791;28;20075;-69
2024/03/18 15:09:15;;;;;;;4.18;3.63;;;17.50;99.90;;;;;;10020041;28;20053;-71
2024/03/18 15:14:06;;;;;;;6.22;3.97;;;17.40;99.90;;;;;;10017748;28;20599;-70
2024/03/18 15:18:57;;;;;;;4.95;3.00;;;17.30;99.90;;;;;;10018649;28;20050;-71
2024/03/18 15:28:45;;;;;;;6.32;3.10;;;17.10;99.90;;;;;;10020359;28;20189;-70
2024/03/18 15:33:35;;;;;;;3.85;2.60;;;16.90;99.90;;;;;;10021388;28;20192;-70
2024/03/18 15:38:26;;;;;;;3.10;2.38;;;16.80;99.90;;;;;;10016695;28;20129;-71
2024/03/18 15:43:17;;;;;;;3.35;2.38;;;16.60;99.90;;;;;;10020344;28;20188;-71
2024/03/18 15:48:08;;;;;;;5.32;2.92;;;16.60;99.90;;;;;;10021977;28;20103;-70
2024/03/18 15:52:59;;;;;;;4.07;3.17;;;16.50;99.90;;;;;;10019077;28;20121;-70
2024/03/18 15:57:50;;;;;;;2.80;1.77;;;16.50;99.90;;;;;;10039368;28;20275;-70
2024/03/18 16:02:45;;;;;;;2.60;1.85;;;16.50;99.90;;;;;;10018505;28;20050;-70
2024/03/18 16:07:37;;;;;;;3.87;1.73;;;16.50;99.90;;;;;;10023087;28;20022;-71
2024/03/18 16:12:28;;;;;;;3.35;1.95;;;16.60;99.90;;;;;;10017370;28;20021;-73
2024/03/18 16:17:18;;;;;;;5.55;2.15;;;16.70;99.90;;;;;;10019433;28;20379;-72
2024/03/18 16:22:09;;;;;;;2.65;2.13;;;16.80;99.90;;;;;;10015523;28;20049;-71
2024/03/18 16:27:00;;;;;;;2.83;1.80;;;16.80;99.90;;;;;;10017662;28;20038;-71
2024/03/18 16:31:50;;;;;;;4.50;1.85;;;16.80;99.90;;;;;;10014770;28;20033;-71
2024/03/18 16:36:41;;;;;;;3.85;2.20;;;16.70;99.90;;;;;;10022788;28;20045;-70
2024/03/18 16:41:32;;;;;;;5.72;2.33;;;16.70;99.90;;;;;;10014406;28;20145;-69
2024/03/18 16:46:24;;;;;;;2.72;2.05;;;16.70;99.90;;;;;;10013960;28;20110;-68
2024/03/18 16:51:15;;;;;;;2.50;1.77;;;16.70;99.90;;;;;;10014455;28;20084;-71
2024/03/18 16:56:05;;;;;;;5.03;2.13;;;16.90;99.90;;;;;;10016668;28;20020;-71
2024/03/18 17:00:57;;;;;;;4.80;2.22;;;16.90;99.90;;;;;;10008111;28;20584;-70
2024/03/18 17:05:48;;;;;;;6.32;2.20;;;16.90;99.90;;;;;;10017841;28;20436;-69
2024/03/18 17:10:43;;;;;;;3.22;1.92;;;16.80;99.90;;;;;;10016910;28;20117;-68
2024/03/18 17:15:34;;;;;;;2.17;1.90;;;16.70;99.90;;;;;;10016037;28;20026;-70
2024/03/18 17:20:25;;;;;;;2.50;2.15;;;16.60;99.90;;;;;;10015204;28;20046;-69
2024/03/18 17:25:16;;;;;;;4.80;2.20;;;16.60;99.90;;;;;;10016202;28;21446;-70
2024/03/18 17:30:07;;;;;;;2.17;1.83;;;16.60;99.90;;;;;;10028993;28;20116;-71
2024/03/18 17:34:57;;;;;;;2.25;1.80;;;16.50;99.90;;;;;;10026161;28;20066;-71
2024/03/18 17:39:56;;;;;;;1.98;1.77;;;16.40;99.90;;;;;;10022762;28;20053;-71
2024/03/18 17:44:47;;;;;;;2.83;1.92;;;16.40;99.90;;;;;;10015275;28;20026;-73
2024/03/18 17:49:39;;;;;;;2.15;1.27;;;16.40;99.90;;;;;;10015455;28;20046;-71
2024/03/18 17:54:30;;;;;;;2.05;1.45;;;16.20;99.90;;;;;;10015779;28;20046;-71
2024/03/18 17:59:21;;;;;;;1.95;1.15;;;15.90;99.90;;;;;;10016473;28;20606;-73
2024/03/18 18:04:12;;;;;;;1.83;1.00;;;15.80;99.90;;;;;;10016850;28;20034;-75
2024/03/18 18:09:05;;;;;;;1.35;0.70;;;15.70;99.90;;;;;;10014670;28;20037;-73
2024/03/18 18:13:56;;;;;;;1.38;1.00;;;15.70;99.90;;;;;;10030429;28;20482;-72
2024/03/18 18:18:46;;;;;;;2.38;1.10;;;15.60;99.90;;;;;;10032735;28;20029;-70
2024/03/18 18:23:37;;;;;;;1.27;1.02;;;15.50;99.90;;;;;;10014888;28;20048;-70
2024/03/18 18:28:28;;;;;;;3.90;1.50;;;15.60;99.90;;;;;;10021818;28;20467;-71
2024/03/18 18:33:19;;;;;;;2.05;1.27;;;15.60;99.90;;;;;;10011476;28;20030;-73
2024/03/18 18:38:10;;;;;;;1.77;1.10;;;15.50;99.90;;;;;;10013178;28;20042;-71
2024/03/18 18:43:03;;;;;;;2.10;0.90;;;15.50;99.90;;;;;;10015068;28;20037;-71
2024/03/18 18:47:55;;;;;;;2.15;1.45;;;15.50;99.90;;;;;;10015329;28;20025;-69
2024/03/18 18:52:45;;;;;;;3.15;1.00;;;15.50;99.90;;;;;;10025032;28;20041;-69
2024/03/18 18:57:36;;;;;;;2.38;1.15;;;15.40;99.90;;;;;;10025451;28;20627;-70
2024/03/18 19:02:29;;;;;;;1.50;1.10;;;15.30;99.90;;;;;;10019114;28;20042;-70
2024/03/18 19:07:20;;;;;;;1.73;1.35;;;15.20;99.90;;;;;;10020901;28;20057;-71
2024/03/18 19:12:11;;;;;;;0.85;0.80;;;15.10;99.90;;;;;;10021200;28;20080;-72
2024/03/18 19:17:02;;;;;;;3.03;1.30;;;15.20;99.90;;;;;;10022699;28;20061;-71
2024/03/18 19:21:54;;;;;;;1.80;1.10;;;15.00;99.90;;;;;;10032651;28;20065;-71
2024/03/18 19:26:44;;;;;;;2.63;1.33;;;15.10;99.90;;;;;;10023467;28;20026;-71
2024/03/18 19:31:35;;;;;;;2.78;1.10;;;15.00;99.90;;;;;;10014192;28;20037;-73
2024/03/18 19:36:26;;;;;;;3.28;1.35;;;14.90;99.90;;;;;;10023656;28;20108;-70
2024/03/18 19:41:18;;;;;;;2.40;1.02;;;14.90;99.90;;;;;;10020052;28;20275;-71
2024/03/18 19:46:09;;;;;;;3.10;1.25;;;14.80;99.90;;;;;;10020171;28;20030;-69
2024/03/18 19:51:00;;;;;;;1.10;0.80;;;14.80;99.90;;;;;;10023117;28;20029;-70
2024/03/18 19:55:51;;;;;;;1.13;0.93;;;14.80;99.90;;;;;;10024347;28;20361;-72
2024/03/18 20:00:41;;;;;;;1.58;1.05;;;14.70;99.90;;;;;;10018278;28;20037;-72
2024/03/18 20:05:32;;;;;;;2.97;1.17;;;14.70;99.90;;;;;;10022955;28;20037;-71
2024/03/18 20:10:23;;;;;;;3.08;1.65;;;14.70;99.90;;;;;;10019758;28;20046;-70
2024/03/18 20:15:16;;;;;;;2.75;1.40;;;14.70;99.90;;;;;;10028701;28;20018;-69
2024/03/18 20:20:11;;;;;;;2.75;1.10;;;14.70;99.90;;;;;;10014039;28;20136;-69
2024/03/18 20:25:02;;;;;;;2.00;1.48;;;14.70;99.90;;;;;;9996422;28;20019;-70
2024/03/18 20:29:53;;;;;;;4.25;1.65;;;14.60;99.90;;;;;;9990797;28;20049;-70
2024/03/18 20:34:43;;;;;;;4.50;1.20;;;14.60;99.90;;;;;;10017164;28;20141;-70
2024/03/18 20:39:34;;;;;;;2.47;1.33;;;14.60;99.90;;;;;;10020991;28;20038;-69
2024/03/18 20:44:25;;;;;;;1.90;1.40;;;14.70;99.90;;;;;;10012813;28;20582;-68
2024/03/18 20:49:15;;;;;;;2.97;1.75;;;14.70;99.90;;;;;;10010944;28;20030;-69
2024/03/18 20:54:06;;;;;;;2.45;1.60;;;14.60;99.90;;;;;;10003182;28;20038;-69
2024/03/18 20:58:58;;;;;;;3.35;1.58;;;14.70;99.90;;;;;;10004136;28;20059;-69
2024/03/18 21:03:50;;;;;;;2.63;1.70;;;14.60;99.90;;;;;;10011615;28;20124;-70
2024/03/18 21:08:41;;;;;;;3.15;2.58;;;14.60;99.90;;;;;;10006871;28;20034;-70
2024/03/18 21:13:32;;;;;;;4.85;2.50;;;14.50;99.90;;;;;;10005559;28;20400;-70
2024/03/18 21:18:23;;;;;;;3.85;2.05;;;14.50;99.90;;;;;;10008699;28;20042;-70
2024/03/18 21:23:14;;;;;;;3.72;1.80;;;14.50;99.90;;;;;;10022516;28;20527;-71
2024/03/18 21:28:05;;;;;;;4.55;1.88;;;14.50;99.90;;;;;;10021159;28;20034;-71
2024/03/18 21:32:56;;;;;;;3.88;1.90;;;14.50;99.90;;;;;;10030328;28;20025;-70
2024/03/18 21:37:51;;;;;;;3.05;1.85;;;14.50;99.90;;;;;;10005957;28;20052;-71
2024/03/18 21:42:41;;;;;;;3.35;1.55;;;14.40;99.90;;;;;;10002351;28;20084;-70
2024/03/18 21:47:37;;;;;;;2.30;1.58;;;14.40;99.90;;;;;;10017009;28;20441;-71
2024/03/18 21:52:27;;;;;;;;;;;14.40;99.90;;;;;;10016511;28;20042;-70
2024/03/18 21:57:18;;;;;;;3.55;1.63;;;14.30;99.90;;;;;;10025820;28;20292;-70
2024/03/18 22:02:09;;;;;;;2.70;1.92;;;14.30;99.90;;;;;;10014760;28;20045;-70
2024/03/18 22:07:01;;;;;;;3.40;2.17;;;14.20;99.90;;;;;;10014495;28;20021;-70
2024/03/18 22:11:51;;;;;;;4.47;3.25;;;14.30;99.90;;;;;;10015874;28;20106;-70
2024/03/18 22:16:42;;;;;;;6.07;2.55;;;14.30;99.90;;;;;;10010690;28;20061;-70
2024/03/18 22:21:33;;;;;;;3.95;1.65;;;14.20;99.90;;;;;;10002282;28;20185;-70
2024/03/18 22:26:27;;;;;;;4.10;2.35;;;14.10;99.90;;;;;;10001721;28;20036;-68
2024/03/18 22:31:22;;;;;;;4.05;2.38;;;14.10;99.90;;;;;;10008992;28;20022;-68
2024/03/18 22:36:13;;;;;;;4.07;2.47;;;14.20;99.90;;;;;;10004857;28;20045;-68
2024/03/18 22:41:03;;;;;;;4.72;2.50;;;14.10;99.90;;;;;;10008320;28;20034;-70
2024/03/18 22:45:54;;;;;;;4.28;2.78;;;14.10;99.90;;;;;;10005385;28;20088;-69
2024/03/18 22:50:55;;;;;;;4.82;2.95;;;14.10;99.90;;;;;;10011714;28;20030;-70
2024/03/18 22:55:48;;;;;;;3.97;2.30;;;14.00;99.90;;;;;;10004353;28;20045;-70
2024/03/18 23:00:39;;;;;;;6.38;3.60;;;14.00;99.90;;;;;;10006191;28;20038;-69
2024/03/18 23:05:30;;;;;;;4.78;2.58;;;14.00;99.90;;;;;;10032934;28;20161;-70
2024/03/18 23:10:21;;;;;;;5.25;2.15;;;14.00;99.90;;;;;;10021130;28;20428;-69
2024/03/18 23:15:14;;;;;;;5.47;2.00;;;14.00;99.90;;;;;;10018333;28;20025;-69
2024/03/18 23:20:09;;;;;;;3.10;2.05;;;13.90;99.90;;;;;;10021180;28;20212;-69
2024/03/18 23:25:06;;;;;;;3.83;2.50;;;13.90;99.90;;;;;;10018883;28;20033;-71
2024/03/18 23:29:57;;;;;;;2.67;1.70;;;13.90;99.90;;;;;;10014689;28;20117;-69
2024/03/18 23:34:48;;;;;;;4.13;1.75;;;13.80;99.90;;;;;;10024118;28;20030;-70
2024/03/18 23:39:39;;;;;;;2.25;1.65;;;13.80;99.90;;;;;;10018333;28;20153;-69
2024/03/18 23:44:30;;;;;;;3.00;2.25;;;13.80;99.90;;;;;;10027378;28;20022;-69
2024/03/18 23:49:21;;;;;;;3.47;1.83;;;13.80;99.90;;;;;;10020177;28;20037;-68
2024/03/18 23:54:11;;;;;;;3.95;2.42;;;13.80;99.90;;;;;;10025453;28;20116;-68
2024/03/18 23:59:02;;;;;;;3.65;2.00;;;13.70;99.90;;;;;;10016291;28;20030;-66
